createdAt,value
2022-12-18T00:02:14.714Z,47.71
2022-12-18T00:04:45.140Z,47.94
2022-12-18T00:07:15.329Z,47.65
2022-12-18T00:09:45.438Z,47.64
2022-12-18T00:12:15.528Z,47.58
2022-12-18T00:14:45.970Z,47.60
2022-12-18T00:17:16.128Z,47.47
2022-12-18T00:19:46.170Z,47.27
2022-12-18T00:22:17.126Z,47.12
2022-12-18T00:24:47.229Z,47.00
2022-12-18T00:27:17.652Z,47.32
2022-12-18T00:29:47.792Z,47.02
2022-12-18T00:32:17.813Z,47.09
2022-12-18T00:34:47.847Z,47.11
2022-12-18T00:37:20.444Z,47.33
2022-12-18T00:39:54.253Z,47.07
2022-12-18T00:42:42.586Z,47.21
2022-12-18T00:45:13.378Z,47.16
2022-12-18T00:47:44.093Z,46.89
2022-12-18T00:50:14.640Z,46.93
2022-12-18T00:52:45.801Z,46.78
2022-12-18T00:55:16.360Z,46.75
2022-12-18T00:57:47.718Z,46.77
2022-12-18T01:00:18.634Z,46.36
2022-12-18T01:02:48.999Z,46.38
2022-12-18T01:05:19.681Z,46.39
2022-12-18T01:07:49.836Z,46.54
2022-12-18T01:10:19.802Z,46.41
2022-12-18T01:12:49.881Z,46.31
2022-12-18T01:15:23.744Z,46.42
2022-12-18T01:17:56.669Z,46.35
2022-12-18T01:20:30.360Z,46.04
2022-12-18T01:23:01.193Z,46.18
2022-12-18T01:25:31.374Z,45.95
2022-12-18T01:28:01.419Z,45.94
2022-12-18T01:30:31.548Z,46.09
2022-12-18T01:33:01.499Z,45.80
2022-12-18T01:35:31.494Z,45.81
2022-12-18T01:38:01.505Z,45.87
2022-12-18T01:40:31.773Z,45.91
2022-12-18T01:43:01.911Z,46.04
2022-12-18T01:45:33.820Z,46.12
2022-12-18T01:48:10.413Z,46.10
2022-12-18T01:50:44.992Z,45.88
2022-12-18T01:53:21.318Z,46.08
2022-12-18T01:55:56.747Z,45.58
2022-12-18T01:59:05.714Z,45.93
2022-12-18T02:01:36.916Z,46.08
2022-12-18T02:04:28.616Z,46.13
2022-12-18T02:07:07.967Z,46.28
2022-12-18T02:09:52.135Z,46.23
2022-12-18T02:12:27.908Z,46.15
2022-12-18T02:15:29.947Z,46.07
2022-12-18T02:18:31.744Z,45.94
2022-12-18T02:21:27.127Z,45.95
2022-12-18T02:24:15.599Z,46.13
2022-12-18T02:27:01.964Z,46.17
2022-12-18T02:29:46.573Z,46.30
2022-12-18T02:32:23.545Z,45.96
2022-12-18T02:34:58.551Z,45.73
2022-12-18T02:37:33.298Z,45.71
2022-12-18T02:40:08.124Z,45.82
2022-12-18T02:42:40.394Z,45.69
2022-12-18T02:45:12.871Z,45.49
2022-12-18T02:47:48.545Z,45.61
2022-12-18T02:50:46.217Z,45.70
2022-12-18T02:53:34.070Z,45.45
2022-12-18T02:56:48.508Z,45.44
2022-12-18T02:59:28.760Z,45.40
2022-12-18T03:02:19.661Z,45.23
2022-12-18T03:05:04.805Z,45.38
2022-12-18T03:07:56.987Z,45.32
2022-12-18T03:10:35.792Z,45.41
2022-12-18T03:13:17.821Z,45.52
2022-12-18T03:15:52.878Z,45.27
2022-12-18T03:18:28.421Z,45.35
2022-12-18T03:21:01.898Z,45.11
2022-12-18T03:23:40.191Z,45.07
2022-12-18T03:26:17.235Z,44.88
2022-12-18T03:28:57.964Z,44.85
2022-12-18T03:31:33.492Z,45.18
2022-12-18T03:34:08.505Z,45.09
2022-12-18T03:36:46.965Z,45.01
2022-12-18T03:39:18.921Z,44.86
2022-12-18T03:42:14.160Z,45.19
2022-12-18T03:45:07.010Z,45.29
2022-12-18T03:48:04.842Z,45.34
2022-12-18T03:51:12.534Z,45.35
2022-12-18T03:53:58.609Z,45.17
2022-12-18T03:56:42.492Z,44.76
2022-12-18T03:59:18.615Z,44.97
2022-12-18T04:01:56.555Z,45.43
2022-12-18T04:04:29.313Z,44.95
2022-12-18T04:07:03.810Z,44.81
2022-12-18T04:09:39.277Z,45.26
2022-12-18T04:12:10.365Z,45.17
2022-12-18T04:14:41.005Z,44.62
2022-12-18T04:17:12.807Z,44.90
2022-12-18T04:19:43.220Z,44.67
2022-12-18T04:22:14.514Z,45.16
2022-12-18T04:24:49.377Z,45.30
2022-12-18T04:27:28.145Z,45.17
2022-12-18T04:29:58.582Z,44.91
2022-12-18T04:32:29.036Z,44.94
2022-12-18T04:34:59.304Z,44.91
2022-12-18T04:37:29.640Z,44.82
2022-12-18T04:39:59.913Z,44.71
2022-12-18T04:42:37.511Z,44.30
2022-12-18T04:45:08.102Z,44.82
2022-12-18T04:47:38.322Z,44.66
2022-12-18T04:50:08.995Z,44.46
2022-12-18T04:52:39.218Z,44.76
2022-12-18T04:55:09.556Z,44.82
2022-12-18T04:57:39.532Z,45.09
2022-12-18T05:00:10.329Z,45.17
2022-12-18T05:02:41.181Z,45.06
2022-12-18T05:05:11.939Z,44.63
2022-12-18T05:07:42.229Z,44.48
2022-12-18T05:10:12.954Z,44.79
2022-12-18T05:13:01.484Z,44.29
2022-12-18T05:15:37.214Z,44.31
2022-12-18T05:18:08.227Z,44.48
2022-12-18T05:20:38.498Z,44.71
2022-12-18T05:23:08.483Z,44.53
2022-12-18T05:25:38.456Z,44.48
2022-12-18T05:28:08.520Z,44.27
2022-12-18T05:30:38.551Z,44.51
2022-12-18T05:33:08.514Z,44.71
2022-12-18T05:35:38.432Z,44.66
2022-12-18T05:38:08.397Z,44.75
2022-12-18T05:40:38.389Z,44.81
2022-12-18T05:43:09.672Z,44.73
2022-12-18T05:45:42.839Z,44.77
2022-12-18T05:48:13.351Z,44.83
2022-12-18T05:50:48.581Z,44.95
2022-12-18T05:53:22.384Z,45.01
2022-12-18T05:55:52.548Z,45.05
2022-12-18T05:58:22.941Z,44.98
2022-12-18T06:00:52.943Z,45.20
2022-12-18T06:03:24.493Z,45.07
2022-12-18T06:05:56.968Z,44.92
2022-12-18T06:08:26.993Z,44.89
2022-12-18T06:10:57.005Z,44.67
2022-12-18T06:13:26.937Z,44.75
2022-12-18T06:15:56.926Z,44.96
2022-12-18T06:18:26.953Z,45.01
2022-12-18T06:21:01.043Z,44.97
2022-12-18T06:23:31.292Z,44.98
2022-12-18T06:26:02.454Z,45.04
2022-12-18T06:28:32.584Z,44.78
2022-12-18T06:31:02.655Z,45.00
2022-12-18T06:33:32.923Z,45.06
2022-12-18T06:36:11.347Z,45.13
2022-12-18T06:38:44.894Z,45.18
2022-12-18T06:41:17.773Z,44.85
2022-12-18T06:43:48.418Z,45.04
2022-12-18T06:46:18.901Z,45.07
2022-12-18T06:48:54.076Z,45.00
2022-12-18T06:51:25.621Z,44.53
2022-12-18T06:53:55.349Z,44.50
2022-12-18T06:56:25.387Z,44.86
2022-12-18T06:58:55.965Z,45.12
2022-12-18T07:01:26.383Z,44.87
2022-12-18T07:04:00.969Z,45.13
2022-12-18T07:06:31.178Z,45.28
2022-12-18T07:09:01.455Z,45.33
2022-12-18T07:11:31.614Z,45.38
2022-12-18T07:14:01.713Z,45.65
2022-12-18T07:16:31.925Z,45.59
2022-12-18T07:19:02.062Z,45.68
2022-12-18T07:21:32.256Z,45.59
2022-12-18T07:24:02.357Z,45.70
2022-12-18T07:26:32.389Z,45.54
2022-12-18T07:29:02.547Z,45.64
2022-12-18T07:31:32.848Z,45.45
2022-12-18T07:34:03.032Z,45.52
2022-12-18T07:36:32.989Z,45.73
2022-12-18T07:39:03.008Z,45.79
2022-12-18T07:41:32.950Z,45.81
2022-12-18T07:44:14.073Z,45.76
2022-12-18T07:46:44.235Z,45.86
2022-12-18T07:49:14.342Z,46.03
2022-12-18T07:51:44.344Z,46.07
2022-12-18T07:54:14.356Z,45.96
2022-12-18T07:56:44.427Z,45.85
2022-12-18T07:59:14.451Z,46.08
2022-12-18T08:01:44.561Z,46.14
2022-12-18T08:04:14.575Z,46.20
2022-12-18T08:06:47.750Z,46.35
2022-12-18T08:09:18.515Z,46.26
2022-12-18T08:11:48.406Z,46.29
2022-12-18T08:14:18.277Z,46.40
2022-12-18T08:16:48.247Z,46.45
2022-12-18T08:19:18.266Z,46.11
2022-12-18T08:21:48.306Z,45.78
2022-12-18T08:24:18.184Z,45.62
2022-12-18T08:27:06.792Z,45.74
2022-12-18T08:29:38.593Z,45.85
2022-12-18T08:32:08.909Z,45.58
2022-12-18T08:34:39.149Z,45.61
2022-12-18T08:37:09.258Z,45.91
2022-12-18T08:39:40.333Z,45.73
2022-12-18T08:42:28.877Z,45.91
2022-12-18T08:44:58.986Z,46.94
2022-12-18T08:47:29.221Z,45.89
2022-12-18T08:49:59.293Z,45.83
2022-12-18T08:52:29.329Z,45.61
2022-12-18T08:54:59.139Z,46.15
2022-12-18T08:57:29.038Z,45.68
2022-12-18T08:59:59.066Z,45.93
2022-12-18T09:02:29.142Z,45.81
2022-12-18T09:04:59.306Z,45.66
2022-12-18T09:07:29.279Z,45.47
2022-12-18T09:09:59.147Z,45.61
2022-12-18T09:12:29.108Z,45.76
2022-12-18T09:14:59.637Z,45.47
2022-12-18T09:17:29.764Z,45.88
2022-12-18T09:20:00.349Z,45.68
2022-12-18T09:22:30.371Z,45.53
2022-12-18T09:25:00.243Z,45.22
2022-12-18T09:27:30.295Z,45.76
2022-12-18T09:30:00.465Z,45.70
2022-12-18T09:32:30.507Z,45.83
2022-12-18T09:35:00.404Z,45.83
2022-12-18T09:37:30.300Z,45.83
2022-12-18T09:40:00.162Z,45.79
2022-12-18T09:42:30.403Z,45.86
2022-12-18T09:45:02.365Z,45.78
2022-12-18T09:47:40.306Z,46.02
2022-12-18T09:50:22.580Z,45.80
2022-12-18T09:52:57.145Z,45.85
2022-12-18T09:55:36.614Z,46.03
2022-12-18T09:58:24.290Z,46.14
2022-12-18T10:00:57.564Z,46.30
2022-12-18T10:03:27.760Z,46.52
2022-12-18T10:06:22.569Z,46.36
2022-12-18T10:08:55.732Z,46.19
2022-12-18T10:11:44.165Z,46.18
2022-12-18T10:14:38.060Z,46.49
2022-12-18T10:17:28.022Z,46.51
2022-12-18T10:20:13.371Z,46.30
2022-12-18T10:22:56.676Z,46.62
2022-12-18T10:25:40.228Z,46.63
2022-12-18T10:28:19.283Z,46.98
2022-12-18T10:30:49.767Z,47.03
2022-12-18T10:33:26.589Z,46.80
2022-12-18T10:35:57.910Z,46.82
2022-12-18T10:38:30.740Z,47.01
2022-12-18T10:41:03.541Z,46.98
2022-12-18T10:43:42.287Z,47.14
2022-12-18T10:46:12.428Z,47.25
2022-12-18T10:48:51.679Z,47.42
2022-12-18T10:51:32.361Z,46.88
2022-12-18T10:54:28.441Z,47.02
2022-12-18T10:57:19.174Z,47.12
2022-12-18T11:00:32.338Z,46.85
2022-12-18T11:03:02.650Z,47.22
2022-12-18T11:05:33.993Z,46.96
2022-12-18T11:08:04.950Z,47.24
2022-12-18T11:10:42.258Z,47.20
2022-12-18T11:13:27.369Z,47.09
2022-12-18T11:15:58.604Z,47.15
2022-12-18T11:18:31.527Z,47.31
2022-12-18T11:21:10.588Z,47.20
2022-12-18T11:23:48.260Z,47.39
2022-12-18T11:26:18.471Z,47.15
2022-12-18T11:29:10.587Z,47.01
2022-12-18T11:31:40.861Z,47.38
2022-12-18T11:34:29.474Z,47.21
2022-12-18T11:37:04.296Z,47.31
2022-12-18T11:39:44.261Z,47.02
2022-12-18T11:42:28.954Z,47.34
2022-12-18T11:45:26.936Z,47.33
2022-12-18T11:48:25.016Z,47.16
2022-12-18T11:51:00.625Z,47.25
2022-12-18T11:53:31.832Z,47.28
2022-12-18T11:56:29.873Z,47.32
2022-12-18T11:59:17.873Z,47.42
2022-12-18T12:02:25.679Z,47.77
2022-12-18T12:05:14.273Z,47.71
2022-12-18T12:07:58.516Z,47.69
2022-12-18T12:10:56.455Z,47.72
2022-12-18T12:13:52.398Z,47.46
2022-12-18T12:16:51.365Z,47.18
2022-12-18T12:20:02.279Z,47.07
2022-12-18T12:22:41.360Z,46.99
2022-12-18T12:25:36.570Z,47.00
2022-12-18T12:28:37.365Z,46.83
2022-12-18T12:33:46.054Z,100.00
2022-12-18T12:36:40.027Z,100.00
2022-12-18T12:39:17.682Z,100.00
2022-12-18T12:42:08.566Z,100.00
2022-12-18T12:44:51.282Z,100.00
2022-12-18T12:47:31.796Z,100.00
2022-12-18T12:50:05.950Z,100.00
2022-12-18T12:52:59.637Z,100.00
2022-12-18T12:55:32.226Z,100.00
2022-12-18T12:58:23.159Z,100.00
2022-12-18T13:01:03.762Z,100.00
2022-12-18T13:03:46.243Z,100.00
2022-12-18T13:06:29.407Z,100.00
2022-12-18T13:09:04.797Z,100.00
2022-12-18T13:12:06.944Z,100.00
2022-12-18T13:14:42.296Z,100.00
2022-12-18T13:17:24.646Z,100.00
2022-12-18T13:20:14.117Z,100.00
2022-12-18T13:22:49.975Z,100.00
2022-12-18T13:25:41.257Z,100.00
2022-12-18T13:28:19.727Z,100.00
2022-12-18T13:31:07.652Z,100.00
2022-12-18T13:36:39.533Z,100.00
2022-12-18T13:42:11.971Z,100.00
2022-12-18T13:44:46.606Z,100.00
2022-12-18T13:47:36.930Z,100.00
2022-12-18T13:50:35.820Z,100.00
2022-12-18T13:53:08.561Z,100.00
2022-12-18T13:55:38.694Z,100.00
2022-12-18T13:58:09.451Z,100.00
2022-12-18T14:00:45.068Z,100.00
2022-12-18T14:03:30.953Z,100.00
2022-12-18T14:06:09.503Z,100.00
2022-12-18T14:08:45.050Z,100.00
2022-12-18T14:11:27.102Z,100.00
2022-12-18T14:13:59.854Z,100.00
2022-12-18T14:16:31.996Z,100.00
2022-12-18T14:19:10.082Z,100.00
2022-12-18T14:21:53.284Z,100.00
2022-12-18T14:24:25.054Z,100.00
2022-12-18T14:26:55.169Z,100.00
2022-12-18T14:29:30.118Z,100.00
2022-12-18T14:32:16.615Z,100.00
2022-12-18T14:34:52.734Z,100.00
2022-12-18T14:37:29.277Z,100.00
2022-12-18T14:40:11.042Z,100.00
2022-12-18T14:42:41.867Z,100.00
2022-12-18T14:45:42.601Z,100.00
2022-12-18T14:48:25.311Z,100.00
2022-12-18T14:51:08.816Z,100.00
2022-12-18T14:53:47.763Z,100.00
2022-12-18T14:56:47.947Z,100.00
2022-12-18T14:59:25.957Z,100.00
2022-12-18T15:02:23.993Z,100.00
2022-12-18T15:05:13.115Z,100.00
2022-12-18T15:07:52.135Z,100.00
2022-12-18T15:10:28.369Z,100.00
2022-12-18T15:13:05.657Z,100.00
2022-12-18T15:15:45.710Z,100.00
2022-12-18T15:18:24.406Z,100.00
2022-12-18T15:21:00.443Z,100.00
2022-12-18T15:23:48.700Z,100.00
2022-12-18T15:26:20.870Z,100.00
2022-12-18T15:29:00.685Z,100.00
2022-12-18T15:31:38.678Z,100.00
2022-12-18T15:34:11.561Z,100.00
2022-12-18T15:36:41.828Z,100.00
2022-12-18T15:39:15.824Z,100.00
2022-12-18T15:42:06.130Z,100.00
2022-12-18T15:44:37.162Z,100.00
2022-12-18T15:47:12.738Z,100.00
2022-12-18T15:49:43.236Z,100.00
2022-12-18T15:52:17.337Z,100.00
2022-12-18T15:55:06.352Z,100.00
2022-12-18T16:00:22.044Z,100.00
2022-12-18T16:02:52.413Z,100.00
2022-12-18T16:05:25.023Z,100.00
2022-12-18T16:07:55.198Z,100.00
2022-12-18T16:10:28.664Z,100.00
2022-12-18T16:12:59.005Z,100.00
2022-12-18T16:15:28.982Z,100.00
2022-12-18T16:17:59.132Z,100.00
2022-12-18T16:20:29.093Z,100.00
2022-12-18T16:22:59.137Z,100.00
2022-12-18T16:25:32.575Z,100.00
2022-12-18T16:28:02.864Z,100.00
2022-12-18T16:30:38.191Z,100.00
2022-12-18T16:33:08.919Z,100.00
2022-12-18T16:35:40.372Z,100.00
2022-12-18T16:38:10.287Z,100.00
2022-12-18T16:41:01.575Z,100.00
2022-12-18T16:46:17.948Z,100.00
2022-12-18T16:48:48.223Z,100.00
2022-12-18T16:51:18.321Z,100.00
2022-12-18T16:53:48.409Z,100.00
2022-12-18T16:56:18.673Z,100.00
2022-12-18T16:58:54.633Z,100.00
2022-12-18T17:01:44.208Z,100.00
2022-12-18T17:04:14.540Z,100.00
2022-12-18T17:06:47.196Z,100.00
2022-12-18T17:09:18.987Z,100.00
2022-12-18T17:11:49.323Z,100.00
2022-12-18T17:14:22.179Z,100.00
2022-12-18T17:17:19.230Z,100.00
2022-12-18T17:19:42.920Z,100.00
2022-12-18T17:22:13.265Z,100.00
2022-12-18T17:24:43.402Z,100.00
2022-12-18T17:27:13.728Z,100.00
2022-12-18T17:29:47.729Z,100.00
2022-12-18T17:32:19.309Z,100.00
2022-12-18T17:34:49.686Z,100.00
2022-12-18T17:37:19.864Z,100.00
2022-12-18T17:39:49.977Z,100.00
2022-12-18T17:42:19.946Z,100.00
2022-12-18T17:44:49.883Z,100.00
2022-12-18T17:47:19.968Z,100.00
2022-12-18T17:49:49.881Z,100.00
2022-12-18T17:52:19.771Z,100.00
2022-12-18T17:54:49.710Z,100.00
2022-12-18T17:57:21.251Z,100.00
2022-12-18T17:59:53.483Z,100.00
2022-12-18T18:02:24.161Z,100.00
2022-12-18T18:04:54.995Z,100.00
2022-12-18T18:07:25.055Z,100.00
2022-12-18T18:09:55.270Z,100.00
2022-12-18T18:12:43.369Z,100.00
2022-12-18T18:15:13.824Z,100.00
2022-12-18T18:17:44.030Z,100.00
2022-12-18T18:20:19.184Z,100.00
2022-12-18T18:22:52.598Z,100.00
2022-12-18T18:25:22.842Z,100.00
2022-12-18T18:27:53.714Z,100.00
2022-12-18T18:30:43.307Z,100.00
2022-12-18T18:33:13.791Z,100.00
2022-12-18T18:35:54.712Z,100.00
2022-12-18T18:38:25.417Z,100.00
2022-12-18T18:41:03.145Z,100.00
2022-12-18T18:43:33.715Z,100.00
2022-12-18T18:46:07.139Z,100.00
2022-12-18T18:48:39.758Z,100.00
2022-12-18T18:51:21.066Z,100.00
2022-12-18T18:53:54.228Z,100.00
2022-12-18T18:56:45.569Z,100.00
2022-12-18T18:59:16.390Z,100.00
2022-12-18T19:01:46.534Z,100.00
2022-12-18T19:04:16.921Z,100.00
2022-12-18T19:06:48.893Z,100.00
2022-12-18T19:09:19.720Z,100.00
2022-12-18T19:12:07.771Z,100.00
2022-12-18T19:14:37.852Z,100.00
2022-12-18T19:17:07.706Z,100.00
2022-12-18T19:19:37.951Z,100.00
2022-12-18T19:22:09.213Z,100.00
2022-12-18T19:24:39.767Z,100.00
2022-12-18T19:27:09.729Z,100.00
2022-12-18T19:29:39.920Z,100.00
2022-12-18T19:32:10.210Z,100.00
2022-12-18T19:34:40.227Z,100.00
2022-12-18T19:37:10.292Z,100.00
2022-12-18T19:39:41.028Z,100.00
2022-12-18T19:42:11.041Z,100.00
2022-12-18T19:44:40.919Z,100.00
2022-12-18T19:47:10.862Z,100.00
2022-12-18T19:49:40.923Z,100.00
2022-12-18T19:52:11.028Z,100.00
2022-12-18T19:54:40.982Z,100.00
2022-12-18T19:57:14.190Z,100.00
2022-12-18T19:59:44.285Z,100.00
2022-12-18T20:02:19.617Z,100.00
2022-12-18T20:04:51.054Z,100.00
2022-12-18T20:07:21.105Z,100.00
2022-12-18T20:09:57.095Z,100.00
2022-12-18T20:12:31.541Z,100.00
2022-12-18T20:15:01.581Z,100.00
2022-12-18T20:17:31.388Z,100.00
2022-12-18T20:20:01.571Z,100.00
2022-12-18T20:22:32.238Z,100.00
2022-12-18T20:25:02.141Z,100.00
2022-12-18T20:27:31.981Z,100.00
2022-12-18T20:30:01.903Z,100.00
2022-12-18T20:32:36.910Z,100.00
2022-12-18T20:35:07.698Z,100.00
2022-12-18T20:37:39.314Z,100.00
2022-12-18T20:40:13.158Z,100.00
2022-12-18T20:42:43.974Z,100.00
2022-12-18T20:45:13.876Z,100.00
2022-12-18T20:47:43.709Z,100.00
2022-12-18T20:50:13.898Z,100.00
2022-12-18T20:52:43.983Z,100.00
2022-12-18T20:55:14.145Z,100.00
2022-12-18T20:57:44.023Z,100.00
2022-12-18T21:00:15.600Z,100.00
2022-12-18T21:02:49.583Z,100.00
2022-12-18T21:05:19.933Z,100.00
2022-12-18T21:07:49.966Z,100.00
2022-12-18T21:10:19.847Z,100.00
2022-12-18T21:13:04.277Z,100.00
2022-12-18T21:15:36.239Z,100.00
2022-12-18T21:18:06.534Z,100.00
2022-12-18T21:20:36.515Z,100.00
2022-12-18T21:23:16.206Z,100.00
2022-12-18T21:25:49.801Z,100.00
2022-12-18T21:28:25.557Z,100.00
2022-12-18T21:30:55.599Z,100.00
2022-12-18T21:33:25.421Z,100.00
2022-12-18T21:35:55.479Z,100.00
2022-12-18T21:38:25.331Z,100.00
2022-12-18T21:40:55.213Z,100.00
2022-12-18T21:43:43.784Z,100.00
2022-12-18T21:46:14.002Z,100.00
2022-12-18T21:48:45.541Z,100.00
2022-12-18T21:51:15.544Z,100.00
2022-12-18T21:53:45.367Z,100.00
2022-12-18T21:56:17.180Z,100.00
2022-12-18T21:58:57.011Z,100.00
2022-12-18T22:01:33.982Z,100.00
2022-12-18T22:04:08.005Z,100.00
2022-12-18T22:06:38.139Z,100.00
2022-12-18T22:09:08.696Z,100.00
2022-12-18T22:11:38.854Z,100.00
2022-12-18T22:14:09.286Z,100.00
2022-12-18T22:16:39.373Z,100.00
2022-12-18T22:19:10.572Z,100.00
2022-12-18T22:21:44.866Z,100.00
2022-12-18T22:24:25.234Z,100.00
2022-12-18T22:28:50.801Z,42.87
2022-12-18T22:31:20.827Z,43.36
2022-12-18T22:33:50.884Z,43.09
2022-12-18T22:36:20.950Z,42.61
2022-12-18T22:38:51.995Z,42.84
2022-12-18T22:41:23.775Z,43.16
2022-12-18T22:43:53.688Z,42.85
2022-12-18T22:46:24.235Z,43.12
2022-12-18T22:48:54.402Z,42.51
2022-12-18T22:51:24.376Z,42.74
2022-12-18T22:53:54.462Z,41.91
2022-12-18T22:56:26.187Z,41.40
2022-12-18T22:58:56.206Z,41.40
2022-12-18T23:01:31.526Z,41.39
2022-12-18T23:04:04.103Z,42.40
2022-12-18T23:06:34.163Z,42.70
2022-12-18T23:09:04.854Z,42.85
2022-12-18T23:11:35.371Z,42.72
2022-12-18T23:14:05.775Z,42.75
2022-12-18T23:16:37.303Z,42.88
2022-12-18T23:19:08.386Z,42.86
2022-12-18T23:21:38.627Z,42.94
2022-12-18T23:24:08.932Z,42.85
2022-12-18T23:26:39.523Z,42.49
2022-12-18T23:29:10.186Z,42.72
2022-12-18T23:31:41.821Z,42.49
2022-12-18T23:34:16.000Z,42.47
2022-12-18T23:36:47.434Z,42.67
2022-12-18T23:39:28.923Z,42.74
2022-12-18T23:42:01.410Z,43.06
2022-12-18T23:44:31.107Z,42.52
2022-12-18T23:47:00.967Z,42.61
2022-12-18T23:49:31.124Z,42.59
2022-12-18T23:52:01.516Z,42.71
2022-12-18T23:54:33.421Z,42.80
2022-12-18T23:57:04.266Z,42.61
2022-12-18T23:59:34.270Z,42.85
